createdAt,value
2022-08-26T00:02:09.422Z,27.10
2022-08-26T00:04:39.493Z,27.17
2022-08-26T00:07:09.374Z,27.07
2022-08-26T00:09:40.147Z,27.19
2022-08-26T00:12:12.402Z,27.02
2022-08-26T00:14:42.952Z,27.18
2022-08-26T00:17:13.316Z,27.19
2022-08-26T00:19:44.026Z,27.29
2022-08-26T00:22:14.216Z,27.35
2022-08-26T00:24:51.757Z,27.37
2022-08-26T00:27:21.727Z,27.60
2022-08-26T00:29:52.222Z,27.52
2022-08-26T00:32:23.256Z,27.56
2022-08-26T00:34:53.198Z,27.70
2022-08-26T00:37:23.140Z,27.76
2022-08-26T00:39:55.251Z,27.79
2022-08-26T00:42:30.928Z,27.78
2022-08-26T00:45:00.789Z,27.80
2022-08-26T00:47:32.518Z,27.72
2022-08-26T00:50:02.513Z,27.82
2022-08-26T00:52:32.737Z,27.83
2022-08-26T00:55:04.183Z,27.78
2022-08-26T00:57:34.446Z,27.81
2022-08-26T01:00:07.424Z,27.73
2022-08-26T01:02:38.554Z,27.86
2022-08-26T01:05:11.633Z,27.81
2022-08-26T01:07:41.958Z,27.88
2022-08-26T01:10:13.161Z,28.01
2022-08-26T01:12:44.251Z,28.02
2022-08-26T01:15:15.511Z,28.09
2022-08-26T01:17:45.609Z,27.98
2022-08-26T01:20:19.398Z,28.20
2022-08-26T01:22:52.332Z,28.20
2022-08-26T01:25:22.636Z,28.34
2022-08-26T01:27:52.540Z,28.32
2022-08-26T01:30:22.641Z,28.29
2022-08-26T01:32:52.675Z,28.36
2022-08-26T01:35:22.753Z,28.39
2022-08-26T01:37:52.982Z,28.51
2022-08-26T01:40:24.574Z,28.56
2022-08-26T01:42:54.563Z,28.60
2022-08-26T01:45:25.431Z,28.61
2022-08-26T01:47:56.986Z,28.66
2022-08-26T01:50:30.132Z,28.78
2022-08-26T01:53:02.140Z,28.89
2022-08-26T01:55:32.784Z,28.93
2022-08-26T01:58:05.235Z,28.76
2022-08-26T02:00:35.355Z,28.80
2022-08-26T02:03:18.514Z,28.67
2022-08-26T02:05:51.551Z,28.71
2022-08-26T02:08:24.555Z,28.75
2022-08-26T02:10:55.327Z,28.73
2022-08-26T02:13:25.693Z,28.79
2022-08-26T02:15:56.283Z,28.83
2022-08-26T02:18:26.449Z,28.90
2022-08-26T02:20:57.834Z,28.87
2022-08-26T02:23:28.050Z,28.82
2022-08-26T02:25:59.368Z,28.91
2022-08-26T02:28:29.997Z,28.84
2022-08-26T02:31:00.004Z,28.70
2022-08-26T02:33:32.918Z,28.76
2022-08-26T02:36:02.975Z,28.87
2022-08-26T02:38:33.336Z,28.77
2022-08-26T02:41:03.431Z,28.79
2022-08-26T02:43:33.334Z,28.92
2022-08-26T02:46:03.766Z,28.94
2022-08-26T02:48:34.511Z,29.07
2022-08-26T02:51:05.919Z,29.16
2022-08-26T02:53:36.025Z,29.26
2022-08-26T02:56:07.563Z,29.17
2022-08-26T02:58:37.493Z,29.30
2022-08-26T03:01:07.595Z,29.23
2022-08-26T03:03:37.967Z,29.22
2022-08-26T03:06:08.863Z,29.24
2022-08-26T03:08:39.504Z,29.35
2022-08-26T03:11:10.708Z,29.37
2022-08-26T03:13:41.175Z,29.25
2022-08-26T03:16:12.070Z,29.26
2022-08-26T03:18:42.241Z,29.21
2022-08-26T03:21:12.753Z,29.25
2022-08-26T03:23:42.882Z,29.21
2022-08-26T03:26:13.435Z,29.26
2022-08-26T03:29:03.255Z,29.62
2022-08-26T03:31:33.349Z,29.77
2022-08-26T03:34:03.865Z,29.82
2022-08-26T03:36:35.177Z,29.98
2022-08-26T03:39:05.404Z,30.57
2022-08-26T03:41:36.955Z,30.71
2022-08-26T03:44:09.157Z,31.08
2022-08-26T03:46:39.609Z,31.18
2022-08-26T03:49:10.300Z,31.33
2022-08-26T03:51:40.741Z,31.37
2022-08-26T03:54:12.165Z,31.23
2022-08-26T03:56:42.179Z,31.28
2022-08-26T03:59:12.431Z,31.46
2022-08-26T04:01:42.591Z,31.31
2022-08-26T04:04:15.610Z,31.58
2022-08-26T04:06:45.742Z,31.78
2022-08-26T04:09:16.508Z,31.61
2022-08-26T04:11:46.617Z,31.90
2022-08-26T04:14:21.238Z,32.16
2022-08-26T04:16:51.439Z,32.18
2022-08-26T04:19:21.955Z,32.25
2022-08-26T04:21:53.383Z,32.33
2022-08-26T04:24:24.001Z,32.01
2022-08-26T04:26:54.087Z,32.20
2022-08-26T04:29:25.664Z,32.13
2022-08-26T04:31:56.425Z,32.25
2022-08-26T04:34:27.255Z,32.16
2022-08-26T04:36:59.089Z,32.66
2022-08-26T04:39:29.103Z,32.21
2022-08-26T04:41:59.129Z,32.24
2022-08-26T04:44:32.020Z,32.24
2022-08-26T04:47:02.956Z,32.04
2022-08-26T04:49:35.405Z,32.39
2022-08-26T04:52:06.001Z,32.29
2022-08-26T04:54:36.379Z,32.35
2022-08-26T04:57:06.879Z,32.57
2022-08-26T04:59:39.272Z,32.53
2022-08-26T05:02:09.673Z,32.45
2022-08-26T05:04:40.558Z,32.55
2022-08-26T05:07:10.798Z,32.60
2022-08-26T05:09:40.857Z,32.58
2022-08-26T05:12:11.041Z,32.36
2022-08-26T05:14:41.887Z,32.47
2022-08-26T05:17:14.928Z,32.39
2022-08-26T05:19:45.285Z,32.42
2022-08-26T05:22:15.273Z,32.34
2022-08-26T05:24:48.513Z,32.55
2022-08-26T05:27:18.603Z,32.47
2022-08-26T05:29:48.432Z,32.47
2022-08-26T05:32:24.567Z,32.67
2022-08-26T05:34:57.294Z,32.55
2022-08-26T05:37:28.880Z,32.82
2022-08-26T05:39:59.470Z,32.90
2022-08-26T05:42:29.853Z,32.73
2022-08-26T05:45:00.187Z,32.43
2022-08-26T05:47:30.208Z,32.59
2022-08-26T05:50:00.941Z,32.77
2022-08-26T05:52:30.972Z,32.87
2022-08-26T05:55:01.461Z,32.70
2022-08-26T05:57:31.531Z,32.68
2022-08-26T06:00:01.477Z,32.54
2022-08-26T06:02:31.590Z,32.86
2022-08-26T06:05:01.547Z,32.81
2022-08-26T06:07:45.497Z,32.80
2022-08-26T06:10:33.294Z,32.75
2022-08-26T06:13:09.269Z,32.95
2022-08-26T06:15:43.473Z,32.83
2022-08-26T06:18:14.826Z,32.93
2022-08-26T06:20:57.034Z,32.85
2022-08-26T06:23:46.335Z,32.79
2022-08-26T06:26:16.611Z,32.81
2022-08-26T06:28:47.000Z,32.77
2022-08-26T06:31:17.055Z,32.62
2022-08-26T06:33:47.081Z,33.01
2022-08-26T06:36:21.895Z,32.71
2022-08-26T06:38:53.802Z,32.57
2022-08-26T06:41:23.899Z,32.66
2022-08-26T06:43:55.291Z,32.83
2022-08-26T06:46:26.060Z,32.95
2022-08-26T06:48:58.529Z,32.89
2022-08-26T06:51:29.359Z,32.67
2022-08-26T06:54:00.887Z,32.63
2022-08-26T06:56:31.287Z,32.60
2022-08-26T06:59:01.240Z,32.81
2022-08-26T07:01:32.488Z,32.58
2022-08-26T07:04:04.226Z,32.61
2022-08-26T07:06:40.125Z,32.00
2022-08-26T07:09:10.444Z,32.39
2022-08-26T07:11:40.523Z,32.45
2022-08-26T07:14:10.676Z,32.26
2022-08-26T07:16:41.505Z,32.31
2022-08-26T07:19:11.756Z,31.17
2022-08-26T07:21:42.261Z,30.52
2022-08-26T07:24:12.147Z,30.18
2022-08-26T07:26:43.245Z,29.89
2022-08-26T07:29:13.794Z,29.66
2022-08-26T07:31:43.813Z,29.21
2022-08-26T07:34:14.358Z,29.50
2022-08-26T07:36:44.934Z,29.28
2022-08-26T07:39:16.865Z,29.20
2022-08-26T07:41:48.221Z,29.26
2022-08-26T07:44:19.569Z,29.06
2022-08-26T07:46:53.139Z,28.75
2022-08-26T07:49:24.256Z,28.66
2022-08-26T07:51:54.741Z,28.54
2022-08-26T07:54:26.928Z,28.23
2022-08-26T07:56:57.721Z,27.82
2022-08-26T07:59:27.599Z,28.01
2022-08-26T08:02:00.923Z,27.91
2022-08-26T08:04:31.582Z,27.88
2022-08-26T08:07:01.526Z,27.88
2022-08-26T08:09:32.297Z,27.80
2022-08-26T08:12:02.281Z,27.78
2022-08-26T08:14:32.576Z,27.94
2022-08-26T08:17:02.863Z,27.85
2022-08-26T08:19:33.220Z,27.92
2022-08-26T08:22:17.875Z,27.98
2022-08-26T08:24:52.847Z,27.78
2022-08-26T08:27:24.237Z,27.56
2022-08-26T08:29:55.953Z,27.50
2022-08-26T08:32:26.256Z,27.68
2022-08-26T08:34:56.322Z,27.56
2022-08-26T08:37:26.316Z,27.59
2022-08-26T08:39:56.286Z,27.82
2022-08-26T08:42:35.916Z,28.09
2022-08-26T08:45:06.822Z,27.91
2022-08-26T08:47:38.047Z,27.75
2022-08-26T08:50:11.839Z,27.93
2022-08-26T08:52:41.994Z,27.61
2022-08-26T08:55:16.036Z,27.37
2022-08-26T08:57:53.789Z,27.49
2022-08-26T09:00:30.545Z,27.49
2022-08-26T09:03:01.301Z,27.51
2022-08-26T09:05:34.322Z,27.65
2022-08-26T09:08:06.592Z,27.66
2022-08-26T09:10:37.634Z,27.64
2022-08-26T09:13:08.781Z,27.58
2022-08-26T09:15:47.549Z,27.22
2022-08-26T09:18:23.594Z,27.48
2022-08-26T09:20:54.766Z,27.77
2022-08-26T09:23:25.240Z,27.76
2022-08-26T09:25:56.091Z,27.51
2022-08-26T09:28:26.838Z,27.43
2022-08-26T09:31:02.686Z,27.44
2022-08-26T09:33:36.042Z,27.55
2022-08-26T09:36:23.024Z,27.31
2022-08-26T09:38:55.407Z,27.00
2022-08-26T09:41:31.920Z,27.03
2022-08-26T09:44:14.656Z,27.06
2022-08-26T09:46:47.967Z,27.00
2022-08-26T09:49:31.634Z,26.79
2022-08-26T09:52:15.308Z,27.00
2022-08-26T09:54:46.115Z,26.93
2022-08-26T09:57:17.592Z,26.92
2022-08-26T09:59:47.685Z,26.82
2022-08-26T10:02:31.650Z,27.05
2022-08-26T10:05:09.342Z,27.38
2022-08-26T10:07:45.919Z,27.39
2022-08-26T10:10:17.758Z,27.62
2022-08-26T10:12:50.909Z,27.77
2022-08-26T10:15:22.459Z,27.67
2022-08-26T10:17:53.467Z,27.63
2022-08-26T10:20:25.289Z,27.60
2022-08-26T10:23:18.513Z,27.79
2022-08-26T10:25:50.729Z,28.01
2022-08-26T10:28:23.438Z,28.44
2022-08-26T10:31:02.844Z,28.13
2022-08-26T10:33:33.111Z,28.27
2022-08-26T10:36:05.252Z,28.45
2022-08-26T10:38:35.887Z,29.06
2022-08-26T10:41:10.429Z,29.04
2022-08-26T10:43:41.621Z,29.17
2022-08-26T10:46:11.933Z,29.01
2022-08-26T10:48:43.849Z,29.03
2022-08-26T10:51:14.229Z,29.08
2022-08-26T10:53:47.034Z,29.39
2022-08-26T10:56:24.354Z,29.28
2022-08-26T10:58:58.071Z,29.35
2022-08-26T11:01:47.089Z,29.42
2022-08-26T11:04:27.761Z,29.46
2022-08-26T11:07:15.239Z,29.31
2022-08-26T11:09:46.575Z,29.10
2022-08-26T11:12:29.710Z,29.44
2022-08-26T11:15:00.890Z,29.44
2022-08-26T11:17:50.991Z,28.94
2022-08-26T11:20:34.086Z,28.71
2022-08-26T11:23:27.469Z,28.64
2022-08-26T11:26:11.178Z,28.74
2022-08-26T11:28:48.245Z,28.69
2022-08-26T11:31:31.749Z,28.54
2022-08-26T11:34:02.668Z,28.62
2022-08-26T11:36:40.793Z,28.53
2022-08-26T11:39:18.085Z,28.16
2022-08-26T11:41:48.561Z,27.73
2022-08-26T11:44:23.293Z,27.84
2022-08-26T11:46:55.335Z,27.78
2022-08-26T11:49:26.359Z,27.96
2022-08-26T11:52:08.621Z,27.49
2022-08-26T11:54:38.699Z,27.00
2022-08-26T11:57:11.689Z,26.63
2022-08-26T11:59:42.650Z,26.68
2022-08-26T12:02:17.915Z,26.51
2022-08-26T12:04:49.512Z,26.66
2022-08-26T12:07:24.012Z,26.58
2022-08-26T12:09:56.423Z,26.23
2022-08-26T12:12:30.760Z,26.43
2022-08-26T12:15:09.611Z,26.72
2022-08-26T12:17:41.093Z,26.39
2022-08-26T12:20:19.558Z,26.14
2022-08-26T12:22:50.541Z,26.22
2022-08-26T12:25:24.206Z,26.23
2022-08-26T12:27:54.648Z,26.05
2022-08-26T12:30:24.752Z,25.82
2022-08-26T12:33:21.865Z,25.46
2022-08-26T12:35:56.660Z,25.25
2022-08-26T12:38:27.352Z,25.08
2022-08-26T12:40:58.612Z,25.01
2022-08-26T12:43:45.168Z,24.56
2022-08-26T12:46:17.617Z,24.28
2022-08-26T12:48:49.523Z,23.91
2022-08-26T12:51:21.399Z,23.97
2022-08-26T12:53:51.972Z,24.11
2022-08-26T12:56:23.579Z,24.27
2022-08-26T12:59:03.411Z,24.17
2022-08-26T13:01:39.436Z,24.36
2022-08-26T13:04:10.013Z,24.38
2022-08-26T13:06:40.849Z,24.25
2022-08-26T13:09:24.684Z,24.35
2022-08-26T13:12:02.236Z,24.21
2022-08-26T13:14:33.305Z,24.25
2022-08-26T13:17:03.531Z,24.67
2022-08-26T13:19:34.245Z,24.69
2022-08-26T13:22:04.256Z,24.68
2022-08-26T13:24:36.075Z,24.51
2022-08-26T13:27:06.959Z,24.64
2022-08-26T13:29:37.574Z,24.61
2022-08-26T13:32:08.160Z,24.66
2022-08-26T13:34:40.354Z,24.68
2022-08-26T13:37:10.612Z,24.76
2022-08-26T13:39:42.237Z,24.61
2022-08-26T13:42:12.129Z,24.71
2022-08-26T13:44:44.311Z,24.75
2022-08-26T13:47:14.493Z,24.83
2022-08-26T13:49:46.655Z,24.85
2022-08-26T13:52:16.871Z,25.03
2022-08-26T13:54:56.070Z,25.07
2022-08-26T13:57:28.529Z,25.36
2022-08-26T13:59:59.578Z,25.65
2022-08-26T14:02:31.328Z,25.79
2022-08-26T14:05:01.366Z,25.79
2022-08-26T14:07:31.574Z,25.79
2022-08-26T14:10:02.165Z,25.87
2022-08-26T14:12:32.063Z,25.66
2022-08-26T14:15:02.215Z,25.68
2022-08-26T14:17:33.141Z,25.59
2022-08-26T14:20:03.848Z,25.63
2022-08-26T14:22:34.191Z,25.73
2022-08-26T14:25:04.409Z,25.39
2022-08-26T14:27:36.736Z,25.60
2022-08-26T14:30:10.432Z,25.89
2022-08-26T14:32:41.679Z,25.86
2022-08-26T14:35:12.094Z,26.01
2022-08-26T14:37:43.015Z,25.97
2022-08-26T14:40:14.173Z,25.98
2022-08-26T14:42:47.893Z,26.07
2022-08-26T14:45:23.818Z,26.07
2022-08-26T14:47:54.247Z,26.22
2022-08-26T14:50:24.740Z,26.34
2022-08-26T14:53:12.463Z,26.40
2022-08-26T14:55:42.672Z,26.47
2022-08-26T14:58:13.000Z,26.52
2022-08-26T15:00:42.901Z,26.82
2022-08-26T15:05:50.018Z,27.61
2022-08-26T15:08:21.088Z,27.70
2022-08-26T15:10:51.387Z,27.93
2022-08-26T15:13:21.430Z,28.13
2022-08-26T15:15:51.718Z,28.11
2022-08-26T15:18:22.499Z,27.84
2022-08-26T15:20:52.575Z,27.66
2022-08-26T15:23:22.814Z,27.66
2022-08-26T15:25:52.775Z,27.66
2022-08-26T15:28:23.167Z,27.63
2022-08-26T15:30:53.514Z,27.72
2022-08-26T15:33:23.729Z,27.73
2022-08-26T15:35:54.004Z,27.60
2022-08-26T15:38:24.414Z,27.37
2022-08-26T15:40:54.480Z,27.21
2022-08-26T15:43:29.134Z,27.23
2022-08-26T15:45:59.620Z,27.32
2022-08-26T15:48:30.024Z,27.48
2022-08-26T15:51:01.594Z,27.53
2022-08-26T15:53:32.152Z,27.58
2022-08-26T15:56:02.539Z,27.60
2022-08-26T15:58:33.602Z,27.69
2022-08-26T16:01:06.934Z,27.91
2022-08-26T16:03:37.019Z,27.98
2022-08-26T16:06:07.541Z,27.93
2022-08-26T16:08:39.201Z,27.96
2022-08-26T16:11:09.269Z,27.90
2022-08-26T16:13:40.163Z,27.85
2022-08-26T16:16:10.529Z,27.85
2022-08-26T16:18:40.945Z,28.03
2022-08-26T16:21:13.309Z,28.25
2022-08-26T16:23:45.303Z,28.22
2022-08-26T16:26:16.254Z,28.47
2022-08-26T16:28:46.877Z,28.65
2022-08-26T16:31:17.013Z,28.84
2022-08-26T16:33:47.754Z,29.12
2022-08-26T16:36:17.964Z,29.48
2022-08-26T16:38:50.402Z,29.81
2022-08-26T16:41:20.616Z,29.95
2022-08-26T16:43:50.748Z,30.23
2022-08-26T16:46:22.760Z,30.66
2022-08-26T16:48:53.163Z,31.62
2022-08-26T16:51:24.040Z,32.62
2022-08-26T16:53:54.315Z,33.10
2022-08-26T16:56:27.727Z,33.38
2022-08-26T16:59:05.512Z,32.90
2022-08-26T17:01:35.806Z,32.95
2022-08-26T17:04:06.555Z,33.07
2022-08-26T17:06:36.994Z,33.21
2022-08-26T17:09:07.242Z,33.36
2022-08-26T17:11:37.505Z,33.72
2022-08-26T17:14:08.066Z,33.76
2022-08-26T17:16:38.104Z,33.55
2022-08-26T17:19:08.518Z,33.40
2022-08-26T17:21:39.774Z,33.55
2022-08-26T17:24:09.917Z,33.86
2022-08-26T17:26:48.376Z,34.10
2022-08-26T17:29:23.645Z,34.43
2022-08-26T17:31:53.887Z,34.57
2022-08-26T17:34:24.386Z,34.80
2022-08-26T17:36:54.312Z,34.83
2022-08-26T17:39:24.129Z,34.85
2022-08-26T17:41:54.056Z,34.97
2022-08-26T17:44:24.749Z,34.94
2022-08-26T17:46:55.028Z,34.58
2022-08-26T17:49:24.885Z,34.50
2022-08-26T17:51:54.659Z,34.14
2022-08-26T17:54:24.726Z,33.78
2022-08-26T17:56:54.557Z,33.37
2022-08-26T17:59:30.630Z,33.21
2022-08-26T18:02:01.493Z,32.92
2022-08-26T18:04:31.971Z,32.75
2022-08-26T18:07:01.931Z,32.67
2022-08-26T18:09:32.707Z,32.60
2022-08-26T18:12:02.647Z,32.46
2022-08-26T18:14:33.195Z,32.37
2022-08-26T18:17:03.305Z,32.47
2022-08-26T18:19:33.719Z,32.54
2022-08-26T18:22:03.923Z,32.38
2022-08-26T18:24:35.240Z,32.25
2022-08-26T18:27:05.591Z,32.15
2022-08-26T18:29:36.106Z,32.13
2022-08-26T18:32:15.812Z,32.17
2022-08-26T18:34:46.253Z,32.27
2022-08-26T18:37:16.311Z,32.19
2022-08-26T18:39:46.695Z,32.10
2022-08-26T18:42:16.801Z,32.01
2022-08-26T18:44:47.463Z,31.81
2022-08-26T18:47:17.300Z,31.79
2022-08-26T18:49:48.027Z,31.56
2022-08-26T18:52:17.744Z,31.41
2022-08-26T18:54:48.410Z,31.08
2022-08-26T18:57:18.449Z,30.93
2022-08-26T18:59:48.680Z,30.72
2022-08-26T19:02:18.954Z,30.74
2022-08-26T19:04:49.790Z,30.63
2022-08-26T19:07:20.211Z,30.68
2022-08-26T19:09:53.877Z,30.42
2022-08-26T19:12:24.165Z,30.30
2022-08-26T19:14:57.285Z,30.23
2022-08-26T19:17:27.222Z,30.21
2022-08-26T19:19:57.214Z,30.22
2022-08-26T19:22:27.427Z,30.04
2022-08-26T19:24:57.508Z,30.02
2022-08-26T19:27:27.975Z,29.90
2022-08-26T19:29:58.801Z,29.73
2022-08-26T19:32:29.325Z,29.54
2022-08-26T19:34:59.159Z,29.69
2022-08-26T19:37:29.486Z,29.82
2022-08-26T19:39:59.604Z,30.04
2022-08-26T19:42:30.476Z,30.06
2022-08-26T19:45:18.279Z,29.81
2022-08-26T19:47:55.452Z,29.51
2022-08-26T19:50:25.988Z,29.46
2022-08-26T19:52:56.213Z,29.35
2022-08-26T19:55:27.812Z,29.36
2022-08-26T19:57:58.832Z,29.43
2022-08-26T20:00:29.555Z,29.61
2022-08-26T20:02:59.921Z,29.65
2022-08-26T20:05:29.792Z,29.56
2022-08-26T20:07:59.574Z,29.74
2022-08-26T20:10:29.625Z,29.70
2022-08-26T20:12:59.619Z,29.42
2022-08-26T20:15:29.619Z,28.91
2022-08-26T20:18:00.057Z,28.86
2022-08-26T20:20:47.434Z,28.98
2022-08-26T20:23:17.809Z,28.99
2022-08-26T20:25:48.066Z,29.03
2022-08-26T20:28:19.007Z,29.05
2022-08-26T20:30:49.089Z,28.91
2022-08-26T20:33:19.968Z,28.99
2022-08-26T20:35:50.243Z,28.76
2022-08-26T20:38:21.552Z,28.83
2022-08-26T20:40:52.156Z,28.68
2022-08-26T20:43:26.230Z,28.52
2022-08-26T20:45:56.191Z,28.39
2022-08-26T20:48:26.794Z,28.09
2022-08-26T20:50:59.723Z,28.04
2022-08-26T20:53:29.827Z,27.91
2022-08-26T20:56:02.499Z,27.91
2022-08-26T20:58:32.577Z,27.98
2022-08-26T21:01:07.362Z,27.56
2022-08-26T21:03:38.466Z,27.51
2022-08-26T21:06:09.521Z,27.32
2022-08-26T21:08:42.514Z,27.37
2022-08-26T21:11:14.035Z,27.38
2022-08-26T21:14:04.025Z,27.53
2022-08-26T21:16:36.287Z,27.94
2022-08-26T21:19:06.611Z,27.80
2022-08-26T21:21:36.638Z,27.62
2022-08-26T21:24:06.965Z,27.70
2022-08-26T21:26:36.934Z,27.46
2022-08-26T21:29:07.004Z,27.68
2022-08-26T21:31:36.997Z,27.55
2022-08-26T21:34:07.174Z,27.35
2022-08-26T21:36:37.262Z,27.09
2022-08-26T21:39:11.493Z,26.48
2022-08-26T21:41:42.544Z,26.37
2022-08-26T21:44:12.510Z,26.16
2022-08-26T21:46:42.407Z,26.08
2022-08-26T21:49:12.704Z,25.96
2022-08-26T21:51:43.522Z,25.71
2022-08-26T21:54:13.458Z,25.52
2022-08-26T21:56:45.476Z,25.26
2022-08-26T21:59:15.745Z,25.39
2022-08-26T22:01:46.099Z,25.55
2022-08-26T22:04:16.377Z,25.44
2022-08-26T22:06:47.089Z,25.38
2022-08-26T22:09:19.064Z,25.32
2022-08-26T22:11:49.303Z,25.41
2022-08-26T22:14:19.544Z,25.55
2022-08-26T22:16:50.563Z,25.57
2022-08-26T22:19:23.498Z,25.55
2022-08-26T22:21:54.302Z,25.43
2022-08-26T22:24:25.152Z,25.54
2022-08-26T22:26:55.482Z,25.62
2022-08-26T22:29:25.988Z,25.64
2022-08-26T22:31:55.898Z,25.47
2022-08-26T22:34:25.922Z,25.45
2022-08-26T22:36:55.993Z,25.54
2022-08-26T22:39:26.254Z,25.56
2022-08-26T22:41:57.205Z,25.62
2022-08-26T22:44:27.084Z,25.72
2022-08-26T22:46:57.226Z,25.80
2022-08-26T22:49:27.183Z,25.74
2022-08-26T22:51:57.290Z,25.81
2022-08-26T22:54:27.304Z,25.76
2022-08-26T22:56:57.540Z,25.80
2022-08-26T22:59:27.470Z,25.82
2022-08-26T23:01:57.629Z,25.94
2022-08-26T23:04:27.595Z,25.91
2022-08-26T23:06:57.716Z,25.81
2022-08-26T23:09:27.711Z,25.73
2022-08-26T23:11:57.720Z,25.79
2022-08-26T23:14:27.687Z,25.76
2022-08-26T23:16:57.727Z,25.88
2022-08-26T23:19:28.209Z,25.86
2022-08-26T23:21:58.044Z,26.01
2022-08-26T23:24:27.907Z,25.92
2022-08-26T23:26:57.998Z,25.99
2022-08-26T23:29:27.967Z,26.00
2022-08-26T23:31:58.098Z,26.04
2022-08-26T23:34:45.617Z,26.08
2022-08-26T23:37:17.318Z,26.14
2022-08-26T23:39:47.359Z,26.21
2022-08-26T23:42:17.256Z,26.12
2022-08-26T23:44:47.180Z,26.10
2022-08-26T23:47:17.439Z,26.07
2022-08-26T23:49:47.259Z,26.10
2022-08-26T23:52:34.705Z,26.01
2022-08-26T23:55:05.158Z,26.17
2022-08-26T23:57:35.078Z,26.22
